sensor_id;sensor_type;location;lat;lon;timestamp;temperature;humidity
47162;DHT22;32921;53.256;8.198;2023-04-06T00:01:02;-1.70;99.90
47162;DHT22;32921;53.256;8.198;2023-04-06T00:03:28;-1.70;99.90
47162;DHT22;32921;53.256;8.198;2023-04-06T00:05:53;-1.50;99.90
47162;DHT22;32921;53.256;8.198;2023-04-06T00:08:19;-1.60;99.90
47162;DHT22;32921;53.256;8.198;2023-04-06T00:10:46;-1.50;99.90
47162;DHT22;32921;53.256;8.198;2023-04-06T00:13:12;-1.50;99.90
47162;DHT22;32921;53.256;8.198;2023-04-06T00:15:38;-1.60;99.90
47162;DHT22;32921;53.256;8.198;2023-04-06T00:18:03;-1.60;99.90
47162;DHT22;32921;53.256;8.198;2023-04-06T00:20:29;-1.60;99.90
47162;DHT22;32921;53.256;8.198;2023-04-06T00:22:54;-1.70;99.90
47162;DHT22;32921;53.256;8.198;2023-04-06T00:25:20;-1.40;99.90
47162;DHT22;32921;53.256;8.198;2023-04-06T00:27:46;-1.50;99.90
47162;DHT22;32921;53.256;8.198;2023-04-06T00:30:11;-1.60;99.90
47162;DHT22;32921;53.256;8.198;2023-04-06T00:32:37;-1.70;99.90
47162;DHT22;32921;53.256;8.198;2023-04-06T00:35:03;-1.80;99.90
47162;DHT22;32921;53.256;8.198;2023-04-06T00:37:29;-1.70;99.90
47162;DHT22;32921;53.256;8.198;2023-04-06T00:39:54;-1.80;99.90
47162;DHT22;32921;53.256;8.198;2023-04-06T00:42:21;-1.80;99.90
47162;DHT22;32921;53.256;8.198;2023-04-06T00:44:59;-2.00;99.90
47162;DHT22;32921;53.256;8.198;2023-04-06T00:47:25;-2.20;99.90
47162;DHT22;32921;53.256;8.198;2023-04-06T00:49:53;-2.30;99.90
47162;DHT22;32921;53.256;8.198;2023-04-06T00:52:19;-2.10;99.90
47162;DHT22;32921;53.256;8.198;2023-04-06T00:54:44;-2.10;99.90
47162;DHT22;32921;53.256;8.198;2023-04-06T00:57:11;-2.10;99.90
47162;DHT22;32921;53.256;8.198;2023-04-06T00:59:37;-2.10;99.90
47162;DHT22;32921;53.256;8.198;2023-04-06T01:02:03;-2.10;99.90
47162;DHT22;32921;53.256;8.198;2023-04-06T01:04:29;-2.20;99.90
47162;DHT22;32921;53.256;8.198;2023-04-06T01:06:55;-2.30;99.90
47162;DHT22;32921;53.256;8.198;2023-04-06T01:09:21;-2.20;99.90
47162;DHT22;32921;53.256;8.198;2023-04-06T01:11:47;-2.10;99.90
47162;DHT22;32921;53.256;8.198;2023-04-06T01:14:12;-2.10;99.90
47162;DHT22;32921;53.256;8.198;2023-04-06T01:16:38;-1.90;99.90
47162;DHT22;32921;53.256;8.198;2023-04-06T01:19:11;-2.10;99.90
47162;DHT22;32921;53.256;8.198;2023-04-06T01:21:38;-2.20;99.90
47162;DHT22;32921;53.256;8.198;2023-04-06T01:24:04;-2.30;99.90
47162;DHT22;32921;53.256;8.198;2023-04-06T01:26:31;-2.40;99.90
47162;DHT22;32921;53.256;8.198;2023-04-06T01:28:57;-2.20;99.90
47162;DHT22;32921;53.256;8.198;2023-04-06T01:31:23;-2.20;99.90
47162;DHT22;32921;53.256;8.198;2023-04-06T01:33:49;-2.10;99.90
47162;DHT22;32921;53.256;8.198;2023-04-06T01:36:16;-2.10;99.90
47162;DHT22;32921;53.256;8.198;2023-04-06T01:38:41;-2.10;99.90
47162;DHT22;32921;53.256;8.198;2023-04-06T01:41:08;-2.10;99.90
47162;DHT22;32921;53.256;8.198;2023-04-06T01:43:33;-2.20;99.90
47162;DHT22;32921;53.256;8.198;2023-04-06T01:45:59;-2.10;99.90
47162;DHT22;32921;53.256;8.198;2023-04-06T01:48:26;-2.30;99.90
47162;DHT22;32921;53.256;8.198;2023-04-06T01:50:52;-2.30;99.90
47162;DHT22;32921;53.256;8.198;2023-04-06T01:53:18;-2.30;99.90
47162;DHT22;32921;53.256;8.198;2023-04-06T01:55:43;-2.40;99.90
47162;DHT22;32921;53.256;8.198;2023-04-06T01:58:09;-2.00;99.90
47162;DHT22;32921;53.256;8.198;2023-04-06T02:00:34;-1.70;99.90
47162;DHT22;32921;53.256;8.198;2023-04-06T02:03:00;-1.60;99.90
47162;DHT22;32921;53.256;8.198;2023-04-06T02:05:26;-1.50;99.90
47162;DHT22;32921;53.256;8.198;2023-04-06T02:07:52;-1.80;99.90
47162;DHT22;32921;53.256;8.198;2023-04-06T02:10:17;-2.00;99.90
47162;DHT22;32921;53.256;8.198;2023-04-06T02:12:43;-2.10;99.90
47162;DHT22;32921;53.256;8.198;2023-04-06T02:15:09;-2.10;99.90
47162;DHT22;32921;53.256;8.198;2023-04-06T02:17:35;-2.20;99.90
47162;DHT22;32921;53.256;8.198;2023-04-06T02:20:00;-2.30;99.90
47162;DHT22;32921;53.256;8.198;2023-04-06T02:22:26;-2.30;99.90
47162;DHT22;32921;53.256;8.198;2023-04-06T02:24:51;-2.50;99.90
47162;DHT22;32921;53.256;8.198;2023-04-06T02:27:17;-2.40;99.90
47162;DHT22;32921;53.256;8.198;2023-04-06T02:29:42;-2.60;99.90
47162;DHT22;32921;53.256;8.198;2023-04-06T02:32:08;-2.70;99.90
47162;DHT22;32921;53.256;8.198;2023-04-06T02:34:34;-2.70;99.90
47162;DHT22;32921;53.256;8.198;2023-04-06T02:36:59;-2.60;99.90
47162;DHT22;32921;53.256;8.198;2023-04-06T02:39:25;-2.20;99.90
47162;DHT22;32921;53.256;8.198;2023-04-06T02:41:50;-2.00;99.90
47162;DHT22;32921;53.256;8.198;2023-04-06T02:44:16;-2.20;99.90
47162;DHT22;32921;53.256;8.198;2023-04-06T02:46:41;-2.30;99.90
47162;DHT22;32921;53.256;8.198;2023-04-06T02:49:07;-2.40;99.90
47162;DHT22;32921;53.256;8.198;2023-04-06T02:51:33;-2.60;99.90
47162;DHT22;32921;53.256;8.198;2023-04-06T02:53:58;-2.50;99.90
47162;DHT22;32921;53.256;8.198;2023-04-06T02:56:24;-2.50;99.90
47162;DHT22;32921;53.256;8.198;2023-04-06T02:58:50;-2.30;99.90
47162;DHT22;32921;53.256;8.198;2023-04-06T03:01:15;-2.30;99.90
47162;DHT22;32921;53.256;8.198;2023-04-06T03:03:41;-2.50;99.90
47162;DHT22;32921;53.256;8.198;2023-04-06T03:06:07;-2.30;99.90
47162;DHT22;32921;53.256;8.198;2023-04-06T03:08:32;-2.40;99.90
47162;DHT22;32921;53.256;8.198;2023-04-06T03:10:58;-2.50;99.90
47162;DHT22;32921;53.256;8.198;2023-04-06T03:13:23;-2.70;99.90
47162;DHT22;32921;53.256;8.198;2023-04-06T03:15:49;-2.80;99.90
47162;DHT22;32921;53.256;8.198;2023-04-06T03:18:15;-2.90;99.90
47162;DHT22;32921;53.256;8.198;2023-04-06T03:20:40;-2.90;99.90
47162;DHT22;32921;53.256;8.198;2023-04-06T03:23:06;-3.00;99.90
47162;DHT22;32921;53.256;8.198;2023-04-06T03:25:32;-3.00;99.90
47162;DHT22;32921;53.256;8.198;2023-04-06T03:27:57;-2.80;99.90
47162;DHT22;32921;53.256;8.198;2023-04-06T03:30:23;-2.80;99.90
47162;DHT22;32921;53.256;8.198;2023-04-06T03:32:48;-2.90;99.90
47162;DHT22;32921;53.256;8.198;2023-04-06T03:35:14;-3.00;99.90
47162;DHT22;32921;53.256;8.198;2023-04-06T03:37:40;-3.10;99.90
47162;DHT22;32921;53.256;8.198;2023-04-06T03:40:06;-2.90;99.90
47162;DHT22;32921;53.256;8.198;2023-04-06T03:42:32;-2.70;99.90
47162;DHT22;32921;53.256;8.198;2023-04-06T03:44:58;-2.90;99.90
47162;DHT22;32921;53.256;8.198;2023-04-06T03:47:24;-3.00;99.90
47162;DHT22;32921;53.256;8.198;2023-04-06T03:49:50;-3.10;99.90
47162;DHT22;32921;53.256;8.198;2023-04-06T03:52:15;-3.20;99.90
47162;DHT22;32921;53.256;8.198;2023-04-06T03:54:41;-3.10;99.90
47162;DHT22;32921;53.256;8.198;2023-04-06T03:57:07;-3.10;99.90
47162;DHT22;32921;53.256;8.198;2023-04-06T03:59:32;-3.20;99.90
47162;DHT22;32921;53.256;8.198;2023-04-06T04:01:58;-3.20;99.90
47162;DHT22;32921;53.256;8.198;2023-04-06T04:04:23;-3.30;99.90
47162;DHT22;32921;53.256;8.198;2023-04-06T04:06:49;-3.30;99.90
47162;DHT22;32921;53.256;8.198;2023-04-06T04:09:14;-3.40;99.90
47162;DHT22;32921;53.256;8.198;2023-04-06T04:11:40;-3.30;99.90
47162;DHT22;32921;53.256;8.198;2023-04-06T04:14:06;-3.40;99.90
47162;DHT22;32921;53.256;8.198;2023-04-06T04:16:31;-3.30;99.90
47162;DHT22;32921;53.256;8.198;2023-04-06T04:18:57;-3.40;99.90
47162;DHT22;32921;53.256;8.198;2023-04-06T04:21:25;-3.40;99.90
47162;DHT22;32921;53.256;8.198;2023-04-06T04:23:51;-3.50;99.90
47162;DHT22;32921;53.256;8.198;2023-04-06T04:26:18;-3.30;99.90
47162;DHT22;32921;53.256;8.198;2023-04-06T04:28:43;-3.30;99.90
47162;DHT22;32921;53.256;8.198;2023-04-06T04:31:09;-3.40;99.90
47162;DHT22;32921;53.256;8.198;2023-04-06T04:33:35;-3.30;99.90
47162;DHT22;32921;53.256;8.198;2023-04-06T04:36:01;-3.30;99.90
47162;DHT22;32921;53.256;8.198;2023-04-06T04:38:26;-3.30;99.90
47162;DHT22;32921;53.256;8.198;2023-04-06T04:40:52;-3.30;99.90
47162;DHT22;32921;53.256;8.198;2023-04-06T04:43:17;-3.20;99.90
47162;DHT22;32921;53.256;8.198;2023-04-06T04:45:43;-2.90;99.90
47162;DHT22;32921;53.256;8.198;2023-04-06T04:48:08;-2.70;99.90
47162;DHT22;32921;53.256;8.198;2023-04-06T04:50:34;-2.30;99.90
47162;DHT22;32921;53.256;8.198;2023-04-06T04:53:00;-1.80;99.90
47162;DHT22;32921;53.256;8.198;2023-04-06T04:55:25;-1.50;99.90
47162;DHT22;32921;53.256;8.198;2023-04-06T04:57:51;-1.20;99.90
47162;DHT22;32921;53.256;8.198;2023-04-06T05:00:17;-1.20;99.90
47162;DHT22;32921;53.256;8.198;2023-04-06T05:02:42;-1.30;99.90
47162;DHT22;32921;53.256;8.198;2023-04-06T05:05:08;-1.10;99.90
47162;DHT22;32921;53.256;8.198;2023-04-06T05:07:34;-1.10;99.90
47162;DHT22;32921;53.256;8.198;2023-04-06T05:10:00;-1.10;99.90
47162;DHT22;32921;53.256;8.198;2023-04-06T05:12:26;-1.20;99.90
47162;DHT22;32921;53.256;8.198;2023-04-06T05:14:53;-1.50;99.90
47162;DHT22;32921;53.256;8.198;2023-04-06T05:17:19;-1.70;99.90
47162;DHT22;32921;53.256;8.198;2023-04-06T05:19:45;-1.80;99.90
47162;DHT22;32921;53.256;8.198;2023-04-06T05:22:10;-2.00;99.90
47162;DHT22;32921;53.256;8.198;2023-04-06T05:24:36;-1.80;99.90
47162;DHT22;32921;53.256;8.198;2023-04-06T05:27:02;-1.80;99.90
47162;DHT22;32921;53.256;8.198;2023-04-06T05:29:28;-1.90;99.90
47162;DHT22;32921;53.256;8.198;2023-04-06T05:31:54;-2.00;99.90
47162;DHT22;32921;53.256;8.198;2023-04-06T05:34:19;-1.90;99.90
47162;DHT22;32921;53.256;8.198;2023-04-06T05:36:45;-1.80;99.90
47162;DHT22;32921;53.256;8.198;2023-04-06T05:39:11;-1.80;99.90
47162;DHT22;32921;53.256;8.198;2023-04-06T05:41:37;-1.10;99.90
47162;DHT22;32921;53.256;8.198;2023-04-06T05:44:03;-1.00;99.90
47162;DHT22;32921;53.256;8.198;2023-04-06T05:46:28;-1.00;99.90
47162;DHT22;32921;53.256;8.198;2023-04-06T05:48:54;-1.20;99.90
47162;DHT22;32921;53.256;8.198;2023-04-06T05:51:20;-1.30;99.90
47162;DHT22;32921;53.256;8.198;2023-04-06T05:53:46;-0.80;99.90
47162;DHT22;32921;53.256;8.198;2023-04-06T05:56:11;-0.50;99.90
47162;DHT22;32921;53.256;8.198;2023-04-06T05:58:37;-0.40;99.90
47162;DHT22;32921;53.256;8.198;2023-04-06T06:01:03;0.00;99.90
47162;DHT22;32921;53.256;8.198;2023-04-06T06:03:30;0.00;99.90
47162;DHT22;32921;53.256;8.198;2023-04-06T06:06:02;0.30;99.90
47162;DHT22;32921;53.256;8.198;2023-04-06T06:08:29;0.50;99.90
47162;DHT22;32921;53.256;8.198;2023-04-06T06:10:56;0.60;99.90
47162;DHT22;32921;53.256;8.198;2023-04-06T06:13:22;0.70;99.90
47162;DHT22;32921;53.256;8.198;2023-04-06T06:15:48;0.90;99.90
47162;DHT22;32921;53.256;8.198;2023-04-06T06:18:14;1.10;99.90
47162;DHT22;32921;53.256;8.198;2023-04-06T06:20:39;1.30;99.90
47162;DHT22;32921;53.256;8.198;2023-04-06T06:23:05;1.50;99.90
47162;DHT22;32921;53.256;8.198;2023-04-06T06:25:31;1.70;99.90
47162;DHT22;32921;53.256;8.198;2023-04-06T06:27:57;1.90;99.90
47162;DHT22;32921;53.256;8.198;2023-04-06T06:30:23;2.10;99.90
47162;DHT22;32921;53.256;8.198;2023-04-06T06:32:49;2.10;99.90
47162;DHT22;32921;53.256;8.198;2023-04-06T06:35:15;2.30;99.90
47162;DHT22;32921;53.256;8.198;2023-04-06T06:37:41;2.60;99.90
47162;DHT22;32921;53.256;8.198;2023-04-06T06:40:08;2.70;99.90
47162;DHT22;32921;53.256;8.198;2023-04-06T06:42:34;3.00;99.90
47162;DHT22;32921;53.256;8.198;2023-04-06T06:45:00;3.30;99.90
47162;DHT22;32921;53.256;8.198;2023-04-06T06:47:26;3.50;99.90
47162;DHT22;32921;53.256;8.198;2023-04-06T06:49:58;3.80;99.90
47162;DHT22;32921;53.256;8.198;2023-04-06T06:52:23;4.20;99.90
47162;DHT22;32921;53.256;8.198;2023-04-06T06:54:49;4.60;99.80
47162;DHT22;32921;53.256;8.198;2023-04-06T06:57:15;4.70;95.20
47162;DHT22;32921;53.256;8.198;2023-04-06T06:59:40;4.90;93.90
47162;DHT22;32921;53.256;8.198;2023-04-06T07:02:06;5.00;91.40
47162;DHT22;32921;53.256;8.198;2023-04-06T07:04:32;5.20;89.90
47162;DHT22;32921;53.256;8.198;2023-04-06T07:06:57;5.30;87.20
47162;DHT22;32921;53.256;8.198;2023-04-06T07:09:23;5.40;84.00
47162;DHT22;32921;53.256;8.198;2023-04-06T07:11:48;5.80;83.20
47162;DHT22;32921;53.256;8.198;2023-04-06T07:14:15;6.00;79.50
47162;DHT22;32921;53.256;8.198;2023-04-06T07:16:41;5.70;77.40
47162;DHT22;32921;53.256;8.198;2023-04-06T07:19:06;6.10;77.20
47162;DHT22;32921;53.256;8.198;2023-04-06T07:21:32;6.10;74.80
47162;DHT22;32921;53.256;8.198;2023-04-06T07:23:57;6.30;76.00
47162;DHT22;32921;53.256;8.198;2023-04-06T07:26:24;6.20;72.40
47162;DHT22;32921;53.256;8.198;2023-04-06T07:28:49;6.10;72.60
47162;DHT22;32921;53.256;8.198;2023-04-06T07:31:15;6.40;73.10
47162;DHT22;32921;53.256;8.198;2023-04-06T07:33:40;7.00;73.30
47162;DHT22;32921;53.256;8.198;2023-04-06T07:36:06;7.30;68.80
47162;DHT22;32921;53.256;8.198;2023-04-06T07:38:32;7.50;69.70
47162;DHT22;32921;53.256;8.198;2023-04-06T07:40:57;7.60;68.30
47162;DHT22;32921;53.256;8.198;2023-04-06T07:43:23;7.70;67.40
47162;DHT22;32921;53.256;8.198;2023-04-06T07:45:48;7.40;66.90
47162;DHT22;32921;53.256;8.198;2023-04-06T07:48:14;7.60;66.20
47162;DHT22;32921;53.256;8.198;2023-04-06T07:50:40;8.10;66.20
47162;DHT22;32921;53.256;8.198;2023-04-06T07:53:06;8.80;63.60
47162;DHT22;32921;53.256;8.198;2023-04-06T07:55:31;8.90;63.80
47162;DHT22;32921;53.256;8.198;2023-04-06T07:57:57;8.80;60.30
47162;DHT22;32921;53.256;8.198;2023-04-06T08:00:22;8.20;61.30
47162;DHT22;32921;53.256;8.198;2023-04-06T08:02:48;8.20;62.80
47162;DHT22;32921;53.256;8.198;2023-04-06T08:05:14;8.30;61.00
47162;DHT22;32921;53.256;8.198;2023-04-06T08:07:39;8.60;62.20
47162;DHT22;32921;53.256;8.198;2023-04-06T08:10:05;8.50;60.00
47162;DHT22;32921;53.256;8.198;2023-04-06T08:12:32;8.70;61.00
47162;DHT22;32921;53.256;8.198;2023-04-06T08:14:58;9.00;58.10
47162;DHT22;32921;53.256;8.198;2023-04-06T08:17:23;9.20;59.90
47162;DHT22;32921;53.256;8.198;2023-04-06T08:19:49;9.40;59.10
47162;DHT22;32921;53.256;8.198;2023-04-06T08:22:14;9.70;56.60
47162;DHT22;32921;53.256;8.198;2023-04-06T08:24:40;9.50;56.20
47162;DHT22;32921;53.256;8.198;2023-04-06T08:27:06;10.30;59.00
47162;DHT22;32921;53.256;8.198;2023-04-06T08:29:31;9.80;55.50
47162;DHT22;32921;53.256;8.198;2023-04-06T08:31:57;10.70;57.00
47162;DHT22;32921;53.256;8.198;2023-04-06T08:34:23;11.90;53.50
47162;DHT22;32921;53.256;8.198;2023-04-06T08:36:49;11.30;52.90
47162;DHT22;32921;53.256;8.198;2023-04-06T08:39:15;11.30;54.10
47162;DHT22;32921;53.256;8.198;2023-04-06T08:41:43;11.50;55.60
47162;DHT22;32921;53.256;8.198;2023-04-06T08:44:09;11.20;52.70
47162;DHT22;32921;53.256;8.198;2023-04-06T08:46:35;11.20;52.90
47162;DHT22;32921;53.256;8.198;2023-04-06T08:49:02;11.50;53.10
47162;DHT22;32921;53.256;8.198;2023-04-06T08:51:29;11.50;52.70
47162;DHT22;32921;53.256;8.198;2023-04-06T08:53:59;12.20;51.80
47162;DHT22;32921;53.256;8.198;2023-04-06T08:56:26;12.20;49.10
47162;DHT22;32921;53.256;8.198;2023-04-06T08:58:53;12.60;47.00
47162;DHT22;32921;53.256;8.198;2023-04-06T09:01:26;12.70;46.70
47162;DHT22;32921;53.256;8.198;2023-04-06T09:03:57;12.50;47.30
47162;DHT22;32921;53.256;8.198;2023-04-06T09:06:23;13.00;46.50
47162;DHT22;32921;53.256;8.198;2023-04-06T09:08:48;12.80;45.20
47162;DHT22;32921;53.256;8.198;2023-04-06T09:11:15;12.60;46.70
47162;DHT22;32921;53.256;8.198;2023-04-06T09:13:48;12.10;46.30
47162;DHT22;32921;53.256;8.198;2023-04-06T09:16:14;12.20;47.50
47162;DHT22;32921;53.256;8.198;2023-04-06T09:18:41;12.40;46.20
47162;DHT22;32921;53.256;8.198;2023-04-06T09:21:07;13.10;44.70
47162;DHT22;32921;53.256;8.198;2023-04-06T09:23:33;12.60;44.00
47162;DHT22;32921;53.256;8.198;2023-04-06T09:26:14;12.20;43.20
47162;DHT22;32921;53.256;8.198;2023-04-06T09:28:41;11.70;45.50
47162;DHT22;32921;53.256;8.198;2023-04-06T09:31:06;11.80;46.40
47162;DHT22;32921;53.256;8.198;2023-04-06T09:33:32;11.40;46.00
47162;DHT22;32921;53.256;8.198;2023-04-06T09:35:58;11.40;47.60
47162;DHT22;32921;53.256;8.198;2023-04-06T09:38:23;11.00;47.20
47162;DHT22;32921;53.256;8.198;2023-04-06T09:40:50;11.50;48.60
47162;DHT22;32921;53.256;8.198;2023-04-06T09:43:26;11.20;47.50
47162;DHT22;32921;53.256;8.198;2023-04-06T09:45:53;11.40;47.50
47162;DHT22;32921;53.256;8.198;2023-04-06T09:48:20;11.90;46.60
47162;DHT22;32921;53.256;8.198;2023-04-06T09:50:49;12.50;47.40
47162;DHT22;32921;53.256;8.198;2023-04-06T09:53:19;12.30;46.00
47162;DHT22;32921;53.256;8.198;2023-04-06T09:55:46;12.60;45.80
47162;DHT22;32921;53.256;8.198;2023-04-06T09:58:16;13.20;44.10
47162;DHT22;32921;53.256;8.198;2023-04-06T10:01:07;13.90;45.80
47162;DHT22;32921;53.256;8.198;2023-04-06T10:06:21;14.60;41.20
47162;DHT22;32921;53.256;8.198;2023-04-06T10:08:49;14.60;39.70
47162;DHT22;32921;53.256;8.198;2023-04-06T10:11:15;13.40;42.70
47162;DHT22;32921;53.256;8.198;2023-04-06T10:13:41;13.50;43.90
47162;DHT22;32921;53.256;8.198;2023-04-06T10:16:08;14.00;43.90
47162;DHT22;32921;53.256;8.198;2023-04-06T10:18:34;13.80;42.40
47162;DHT22;32921;53.256;8.198;2023-04-06T10:21:01;13.50;43.50
47162;DHT22;32921;53.256;8.198;2023-04-06T10:23:33;14.20;39.10
47162;DHT22;32921;53.256;8.198;2023-04-06T10:26:01;15.00;38.70
47162;DHT22;32921;53.256;8.198;2023-04-06T10:28:33;14.00;40.90
47162;DHT22;32921;53.256;8.198;2023-04-06T10:31:00;13.40;40.00
47162;DHT22;32921;53.256;8.198;2023-04-06T10:33:27;13.20;43.10
47162;DHT22;32921;53.256;8.198;2023-04-06T10:35:53;13.60;42.40
47162;DHT22;32921;53.256;8.198;2023-04-06T10:38:21;13.80;41.80
47162;DHT22;32921;53.256;8.198;2023-04-06T10:40:48;14.20;40.40
47162;DHT22;32921;53.256;8.198;2023-04-06T10:43:20;14.50;40.80
47162;DHT22;32921;53.256;8.198;2023-04-06T10:45:55;15.50;41.00
47162;DHT22;32921;53.256;8.198;2023-04-06T10:48:21;16.00;38.70
47162;DHT22;32921;53.256;8.198;2023-04-06T10:50:49;15.80;38.60
47162;DHT22;32921;53.256;8.198;2023-04-06T10:53:26;15.70;38.00
47162;DHT22;32921;53.256;8.198;2023-04-06T10:55:54;15.10;37.80
47162;DHT22;32921;53.256;8.198;2023-04-06T10:58:24;15.30;36.70
47162;DHT22;32921;53.256;8.198;2023-04-06T11:00:50;15.60;37.20
47162;DHT22;32921;53.256;8.198;2023-04-06T11:03:16;15.60;36.20
47162;DHT22;32921;53.256;8.198;2023-04-06T11:05:50;15.80;37.30
47162;DHT22;32921;53.256;8.198;2023-04-06T11:08:32;15.60;35.60
47162;DHT22;32921;53.256;8.198;2023-04-06T11:13:58;16.30;36.90
47162;DHT22;32921;53.256;8.198;2023-04-06T11:16:31;15.80;35.20
47162;DHT22;32921;53.256;8.198;2023-04-06T11:19:01;16.10;35.90
47162;DHT22;32921;53.256;8.198;2023-04-06T11:21:47;15.70;35.60
47162;DHT22;32921;53.256;8.198;2023-04-06T11:24:23;15.10;36.30
47162;DHT22;32921;53.256;8.198;2023-04-06T11:26:55;16.20;36.50
47162;DHT22;32921;53.256;8.198;2023-04-06T11:29:23;17.20;34.00
47162;DHT22;32921;53.256;8.198;2023-04-06T11:31:58;16.90;32.50
47162;DHT22;32921;53.256;8.198;2023-04-06T11:34:25;16.50;30.80
47162;DHT22;32921;53.256;8.198;2023-04-06T11:36:57;17.30;29.30
47162;DHT22;32921;53.256;8.198;2023-04-06T11:39:25;17.40;30.00
47162;DHT22;32921;53.256;8.198;2023-04-06T11:41:51;17.90;32.20
47162;DHT22;32921;53.256;8.198;2023-04-06T11:44:42;18.50;32.50
47162;DHT22;32921;53.256;8.198;2023-04-06T11:47:09;18.30;28.60
47162;DHT22;32921;53.256;8.198;2023-04-06T11:49:40;17.70;30.60
47162;DHT22;32921;53.256;8.198;2023-04-06T11:52:23;17.00;30.70
47162;DHT22;32921;53.256;8.198;2023-04-06T11:54:50;16.70;30.00
47162;DHT22;32921;53.256;8.198;2023-04-06T11:57:16;17.40;30.80
47162;DHT22;32921;53.256;8.198;2023-04-06T11:59:42;18.20;27.70
47162;DHT22;32921;53.256;8.198;2023-04-06T12:02:08;18.30;28.70
47162;DHT22;32921;53.256;8.198;2023-04-06T12:04:34;18.50;28.10
47162;DHT22;32921;53.256;8.198;2023-04-06T12:07:00;18.10;29.70
47162;DHT22;32921;53.256;8.198;2023-04-06T12:09:25;17.40;29.60
47162;DHT22;32921;53.256;8.198;2023-04-06T12:11:51;18.50;29.60
47162;DHT22;32921;53.256;8.198;2023-04-06T12:14:17;18.30;28.50
47162;DHT22;32921;53.256;8.198;2023-04-06T12:16:42;18.30;29.50
47162;DHT22;32921;53.256;8.198;2023-04-06T12:19:09;19.10;28.20
47162;DHT22;32921;53.256;8.198;2023-04-06T12:21:35;19.00;28.00
47162;DHT22;32921;53.256;8.198;2023-04-06T12:24:02;19.30;29.00
47162;DHT22;32921;53.256;8.198;2023-04-06T12:26:30;19.30;28.00
47162;DHT22;32921;53.256;8.198;2023-04-06T12:28:56;19.90;27.30
47162;DHT22;32921;53.256;8.198;2023-04-06T12:31:22;20.30;26.70
47162;DHT22;32921;53.256;8.198;2023-04-06T12:33:51;20.20;26.20
47162;DHT22;32921;53.256;8.198;2023-04-06T12:36:18;19.50;27.80
47162;DHT22;32921;53.256;8.198;2023-04-06T12:38:45;19.20;28.20
47162;DHT22;32921;53.256;8.198;2023-04-06T12:41:11;18.00;30.10
47162;DHT22;32921;53.256;8.198;2023-04-06T12:43:38;17.60;30.60
47162;DHT22;32921;53.256;8.198;2023-04-06T12:46:04;18.00;30.80
47162;DHT22;32921;53.256;8.198;2023-04-06T12:48:29;19.20;29.30
47162;DHT22;32921;53.256;8.198;2023-04-06T12:51:00;19.80;28.20
47162;DHT22;32921;53.256;8.198;2023-04-06T12:53:26;20.10;27.90
47162;DHT22;32921;53.256;8.198;2023-04-06T12:55:54;20.30;27.30
47162;DHT22;32921;53.256;8.198;2023-04-06T12:58:21;19.70;27.80
47162;DHT22;32921;53.256;8.198;2023-04-06T13:00:48;19.00;28.00
47162;DHT22;32921;53.256;8.198;2023-04-06T13:03:14;17.90;28.40
47162;DHT22;32921;53.256;8.198;2023-04-06T13:05:50;17.90;27.80
47162;DHT22;32921;53.256;8.198;2023-04-06T13:08:17;17.40;29.00
47162;DHT22;32921;53.256;8.198;2023-04-06T13:10:52;17.70;29.60
47162;DHT22;32921;53.256;8.198;2023-04-06T13:13:26;18.80;28.10
47162;DHT22;32921;53.256;8.198;2023-04-06T13:15:53;18.80;27.70
47162;DHT22;32921;53.256;8.198;2023-04-06T13:18:19;19.10;29.00
47162;DHT22;32921;53.256;8.198;2023-04-06T13:20:46;19.40;27.90
47162;DHT22;32921;53.256;8.198;2023-04-06T13:23:12;19.20;26.40
47162;DHT22;32921;53.256;8.198;2023-04-06T13:25:37;19.30;27.00
47162;DHT22;32921;53.256;8.198;2023-04-06T13:28:03;17.40;28.80
47162;DHT22;32921;53.256;8.198;2023-04-06T13:30:29;17.80;29.40
47162;DHT22;32921;53.256;8.198;2023-04-06T13:32:54;18.20;28.60
47162;DHT22;32921;53.256;8.198;2023-04-06T13:35:20;17.50;28.80
47162;DHT22;32921;53.256;8.198;2023-04-06T13:37:45;17.70;28.90
47162;DHT22;32921;53.256;8.198;2023-04-06T13:40:11;17.40;28.60
47162;DHT22;32921;53.256;8.198;2023-04-06T13:42:37;17.20;29.60
47162;DHT22;32921;53.256;8.198;2023-04-06T13:45:06;16.90;30.50
47162;DHT22;32921;53.256;8.198;2023-04-06T13:47:31;17.00;29.90
47162;DHT22;32921;53.256;8.198;2023-04-06T13:49:57;17.00;29.80
47162;DHT22;32921;53.256;8.198;2023-04-06T13:52:22;16.90;30.00
47162;DHT22;32921;53.256;8.198;2023-04-06T13:54:49;17.10;29.60
47162;DHT22;32921;53.256;8.198;2023-04-06T13:57:15;17.00;29.70
47162;DHT22;32921;53.256;8.198;2023-04-06T13:59:41;17.50;30.30
47162;DHT22;32921;53.256;8.198;2023-04-06T14:02:08;17.30;28.90
47162;DHT22;32921;53.256;8.198;2023-04-06T14:04:34;17.90;29.40
47162;DHT22;32921;53.256;8.198;2023-04-06T14:07:01;18.50;27.80
47162;DHT22;32921;53.256;8.198;2023-04-06T14:09:27;18.90;27.30
47162;DHT22;32921;53.256;8.198;2023-04-06T14:11:53;19.80;27.70
47162;DHT22;32921;53.256;8.198;2023-04-06T14:14:19;19.90;27.50
47162;DHT22;32921;53.256;8.198;2023-04-06T14:16:45;19.40;28.00
47162;DHT22;32921;53.256;8.198;2023-04-06T14:19:12;19.00;28.40
47162;DHT22;32921;53.256;8.198;2023-04-06T14:21:38;18.50;28.50
47162;DHT22;32921;53.256;8.198;2023-04-06T14:24:07;18.30;29.70
47162;DHT22;32921;53.256;8.198;2023-04-06T14:26:37;18.40;28.70
47162;DHT22;32921;53.256;8.198;2023-04-06T14:29:03;17.70;29.90
47162;DHT22;32921;53.256;8.198;2023-04-06T14:31:30;16.40;30.20
47162;DHT22;32921;53.256;8.198;2023-04-06T14:33:56;16.20;30.60
47162;DHT22;32921;53.256;8.198;2023-04-06T14:36:21;16.70;30.90
47162;DHT22;32921;53.256;8.198;2023-04-06T14:38:47;15.70;30.90
47162;DHT22;32921;53.256;8.198;2023-04-06T14:41:17;15.60;32.50
47162;DHT22;32921;53.256;8.198;2023-04-06T14:43:43;15.80;30.40
47162;DHT22;32921;53.256;8.198;2023-04-06T14:46:09;15.80;32.80
47162;DHT22;32921;53.256;8.198;2023-04-06T14:48:35;16.10;31.30
47162;DHT22;32921;53.256;8.198;2023-04-06T14:51:01;15.80;32.20
47162;DHT22;32921;53.256;8.198;2023-04-06T14:53:27;15.60;31.90
47162;DHT22;32921;53.256;8.198;2023-04-06T14:55:53;15.50;33.90
47162;DHT22;32921;53.256;8.198;2023-04-06T14:58:20;15.50;31.90
47162;DHT22;32921;53.256;8.198;2023-04-06T15:00:46;14.80;33.40
47162;DHT22;32921;53.256;8.198;2023-04-06T15:03:11;14.80;34.80
47162;DHT22;32921;53.256;8.198;2023-04-06T15:05:37;14.80;33.40
47162;DHT22;32921;53.256;8.198;2023-04-06T15:08:02;15.50;33.80
47162;DHT22;32921;53.256;8.198;2023-04-06T15:10:31;15.40;32.30
47162;DHT22;32921;53.256;8.198;2023-04-06T15:12:57;15.50;32.60
47162;DHT22;32921;53.256;8.198;2023-04-06T15:15:22;15.30;33.00
47162;DHT22;32921;53.256;8.198;2023-04-06T15:17:48;15.70;33.50
47162;DHT22;32921;53.256;8.198;2023-04-06T15:20:13;15.70;32.80
47162;DHT22;32921;53.256;8.198;2023-04-06T15:22:39;14.90;32.60
47162;DHT22;32921;53.256;8.198;2023-04-06T15:25:05;14.70;34.50
47162;DHT22;32921;53.256;8.198;2023-04-06T15:27:31;14.80;34.40
47162;DHT22;32921;53.256;8.198;2023-04-06T15:29:56;15.10;34.40
47162;DHT22;32921;53.256;8.198;2023-04-06T15:32:24;14.90;33.00
47162;DHT22;32921;53.256;8.198;2023-04-06T15:34:50;14.50;35.00